sensor_id;sensor_type;location;lat;lon;timestamp;P1;durP1;ratioP1;P2;durP2;ratioP2
2462;SDS011;1243;54.298;10.172;2023-08-30T00:00:05;3.20;;;3.00;;
2462;SDS011;1243;54.298;10.172;2023-08-30T00:02:31;3.60;;;3.37;;
2462;SDS011;1243;54.298;10.172;2023-08-30T00:05:00;3.33;;;3.13;;
2462;SDS011;1243;54.298;10.172;2023-08-30T00:07:26;5.50;;;4.00;;
2462;SDS011;1243;54.298;10.172;2023-08-30T00:09:52;7.90;;;3.70;;
2462;SDS011;1243;54.298;10.172;2023-08-30T00:12:18;5.00;;;3.30;;
2462;SDS011;1243;54.298;10.172;2023-08-30T00:14:43;3.70;;;3.40;;
2462;SDS011;1243;54.298;10.172;2023-08-30T00:17:09;3.43;;;3.17;;
2462;SDS011;1243;54.298;10.172;2023-08-30T00:19:35;5.57;;;3.60;;
2462;SDS011;1243;54.298;10.172;2023-08-30T00:22:01;4.33;;;4.03;;
2462;SDS011;1243;54.298;10.172;2023-08-30T00:24:27;5.13;;;4.73;;
2462;SDS011;1243;54.298;10.172;2023-08-30T00:26:53;4.50;;;4.10;;
2462;SDS011;1243;54.298;10.172;2023-08-30T00:29:19;4.20;;;3.90;;
2462;SDS011;1243;54.298;10.172;2023-08-30T00:31:45;4.40;;;4.00;;
2462;SDS011;1243;54.298;10.172;2023-08-30T00:34:10;4.80;;;4.40;;
2462;SDS011;1243;54.298;10.172;2023-08-30T00:36:36;5.20;;;4.83;;
2462;SDS011;1243;54.298;10.172;2023-08-30T00:39:02;4.93;;;4.53;;
2462;SDS011;1243;54.298;10.172;2023-08-30T00:41:29;4.67;;;4.30;;
2462;SDS011;1243;54.298;10.172;2023-08-30T00:43:54;4.30;;;3.90;;
2462;SDS011;1243;54.298;10.172;2023-08-30T00:46:20;8.13;;;4.97;;
2462;SDS011;1243;54.298;10.172;2023-08-30T00:48:47;5.47;;;4.77;;
2462;SDS011;1243;54.298;10.172;2023-08-30T00:51:13;4.50;;;4.10;;
2462;SDS011;1243;54.298;10.172;2023-08-30T00:53:38;4.50;;;4.10;;
2462;SDS011;1243;54.298;10.172;2023-08-30T00:56:04;5.10;;;3.97;;
2462;SDS011;1243;54.298;10.172;2023-08-30T00:58:30;8.33;;;5.53;;
2462;SDS011;1243;54.298;10.172;2023-08-30T01:00:56;4.00;;;3.70;;
2462;SDS011;1243;54.298;10.172;2023-08-30T01:03:22;6.90;;;3.40;;
2462;SDS011;1243;54.298;10.172;2023-08-30T01:05:48;4.13;;;3.83;;
2462;SDS011;1243;54.298;10.172;2023-08-30T01:08:14;4.43;;;4.03;;
2462;SDS011;1243;54.298;10.172;2023-08-30T01:13:12;4.50;;;4.10;;
2462;SDS011;1243;54.298;10.172;2023-08-30T01:15:45;5.20;;;4.80;;
2462;SDS011;1243;54.298;10.172;2023-08-30T01:18:17;4.73;;;4.33;;
2462;SDS011;1243;54.298;10.172;2023-08-30T01:20:44;4.83;;;4.43;;
2462;SDS011;1243;54.298;10.172;2023-08-30T01:23:27;3.53;;;3.33;;
2462;SDS011;1243;54.298;10.172;2023-08-30T01:25:57;3.70;;;3.50;;
2462;SDS011;1243;54.298;10.172;2023-08-30T01:28:31;4.20;;;3.90;;
2462;SDS011;1243;54.298;10.172;2023-08-30T01:30:59;3.70;;;3.40;;
2462;SDS011;1243;54.298;10.172;2023-08-30T01:33:25;4.60;;;3.70;;
2462;SDS011;1243;54.298;10.172;2023-08-30T01:35:56;6.57;;;4.23;;
2462;SDS011;1243;54.298;10.172;2023-08-30T01:38:24;3.57;;;3.27;;
2462;SDS011;1243;54.298;10.172;2023-08-30T01:40:52;3.93;;;3.63;;
2462;SDS011;1243;54.298;10.172;2023-08-30T01:43:20;3.37;;;3.17;;
2462;SDS011;1243;54.298;10.172;2023-08-30T01:45:46;4.00;;;3.60;;
2462;SDS011;1243;54.298;10.172;2023-08-30T01:48:13;6.07;;;3.73;;
2462;SDS011;1243;54.298;10.172;2023-08-30T01:50:41;5.40;;;4.90;;
2462;SDS011;1243;54.298;10.172;2023-08-30T01:53:08;4.37;;;4.07;;
2462;SDS011;1243;54.298;10.172;2023-08-30T01:55:35;3.73;;;3.47;;
2462;SDS011;1243;54.298;10.172;2023-08-30T01:58:02;4.30;;;4.00;;
2462;SDS011;1243;54.298;10.172;2023-08-30T02:00:28;5.77;;;3.83;;
2462;SDS011;1243;54.298;10.172;2023-08-30T02:02:55;4.60;;;4.23;;
2462;SDS011;1243;54.298;10.172;2023-08-30T02:05:22;4.30;;;3.90;;
2462;SDS011;1243;54.298;10.172;2023-08-30T02:10:37;4.20;;;3.90;;
2462;SDS011;1243;54.298;10.172;2023-08-30T02:13:08;4.40;;;4.00;;
2462;SDS011;1243;54.298;10.172;2023-08-30T02:15:37;4.63;;;4.10;;
2462;SDS011;1243;54.298;10.172;2023-08-30T02:18:06;4.87;;;4.00;;
2462;SDS011;1243;54.298;10.172;2023-08-30T02:20:32;4.50;;;4.20;;
2462;SDS011;1243;54.298;10.172;2023-08-30T02:22:58;5.07;;;4.67;;
2462;SDS011;1243;54.298;10.172;2023-08-30T02:25:25;6.00;;;4.77;;
2462;SDS011;1243;54.298;10.172;2023-08-30T02:27:51;3.97;;;3.63;;
2462;SDS011;1243;54.298;10.172;2023-08-30T02:30:17;4.20;;;3.90;;
2462;SDS011;1243;54.298;10.172;2023-08-30T02:32:42;6.33;;;4.53;;
2462;SDS011;1243;54.298;10.172;2023-08-30T02:35:08;5.23;;;4.73;;
2462;SDS011;1243;54.298;10.172;2023-08-30T02:37:34;5.23;;;4.10;;
2462;SDS011;1243;54.298;10.172;2023-08-30T02:39:59;4.13;;;3.83;;
2462;SDS011;1243;54.298;10.172;2023-08-30T02:42:26;4.50;;;3.87;;
2462;SDS011;1243;54.298;10.172;2023-08-30T02:44:51;4.83;;;4.43;;
2462;SDS011;1243;54.298;10.172;2023-08-30T02:47:18;4.90;;;4.50;;
2462;SDS011;1243;54.298;10.172;2023-08-30T02:49:43;6.00;;;5.40;;
2462;SDS011;1243;54.298;10.172;2023-08-30T02:52:09;5.17;;;4.37;;
2462;SDS011;1243;54.298;10.172;2023-08-30T02:54:35;5.20;;;4.20;;
2462;SDS011;1243;54.298;10.172;2023-08-30T02:57:00;4.53;;;4.20;;
2462;SDS011;1243;54.298;10.172;2023-08-30T02:59:26;4.90;;;4.40;;
2462;SDS011;1243;54.298;10.172;2023-08-30T03:01:52;5.07;;;4.07;;
2462;SDS011;1243;54.298;10.172;2023-08-30T03:04:17;7.23;;;4.90;;
2462;SDS011;1243;54.298;10.172;2023-08-30T03:06:43;6.23;;;5.43;;
2462;SDS011;1243;54.298;10.172;2023-08-30T03:09:09;5.73;;;5.23;;
2462;SDS011;1243;54.298;10.172;2023-08-30T03:11:35;5.07;;;4.73;;
2462;SDS011;1243;54.298;10.172;2023-08-30T03:14:00;8.10;;;5.50;;
2462;SDS011;1243;54.298;10.172;2023-08-30T03:16:26;5.60;;;5.10;;
2462;SDS011;1243;54.298;10.172;2023-08-30T03:18:52;5.80;;;5.30;;
2462;SDS011;1243;54.298;10.172;2023-08-30T03:21:18;5.97;;;5.37;;
2462;SDS011;1243;54.298;10.172;2023-08-30T03:23:44;10.33;;;6.40;;
2462;SDS011;1243;54.298;10.172;2023-08-30T03:26:13;8.13;;;6.83;;
2462;SDS011;1243;54.298;10.172;2023-08-30T03:28:40;7.80;;;7.00;;
2462;SDS011;1243;54.298;10.172;2023-08-30T03:31:19;7.67;;;6.67;;
2462;SDS011;1243;54.298;10.172;2023-08-30T03:33:46;7.70;;;6.97;;
2462;SDS011;1243;54.298;10.172;2023-08-30T03:36:16;7.10;;;5.63;;
2462;SDS011;1243;54.298;10.172;2023-08-30T03:38:43;6.63;;;5.93;;
2462;SDS011;1243;54.298;10.172;2023-08-30T03:41:10;8.60;;;6.80;;
2462;SDS011;1243;54.298;10.172;2023-08-30T03:43:36;9.30;;;6.47;;
2462;SDS011;1243;54.298;10.172;2023-08-30T03:46:02;6.93;;;6.23;;
2462;SDS011;1243;54.298;10.172;2023-08-30T03:48:28;7.03;;;6.40;;
2462;SDS011;1243;54.298;10.172;2023-08-30T03:50:55;7.60;;;6.90;;
2462;SDS011;1243;54.298;10.172;2023-08-30T03:53:21;7.13;;;6.43;;
2462;SDS011;1243;54.298;10.172;2023-08-30T03:55:48;8.33;;;7.27;;
2462;SDS011;1243;54.298;10.172;2023-08-30T03:58:13;8.50;;;7.60;;
2462;SDS011;1243;54.298;10.172;2023-08-30T04:00:39;10.40;;;7.83;;
2462;SDS011;1243;54.298;10.172;2023-08-30T04:03:05;11.70;;;9.20;;
2462;SDS011;1243;54.298;10.172;2023-08-30T04:05:33;9.33;;;8.40;;
2462;SDS011;1243;54.298;10.172;2023-08-30T04:08:01;10.97;;;9.33;;
2462;SDS011;1243;54.298;10.172;2023-08-30T04:10:27;12.40;;;9.70;;
2462;SDS011;1243;54.298;10.172;2023-08-30T04:12:52;11.77;;;9.70;;
2462;SDS011;1243;54.298;10.172;2023-08-30T04:15:18;12.57;;;9.60;;
2462;SDS011;1243;54.298;10.172;2023-08-30T04:17:44;12.07;;;9.43;;
2462;SDS011;1243;54.298;10.172;2023-08-30T04:20:10;10.67;;;8.93;;
2462;SDS011;1243;54.298;10.172;2023-08-30T04:22:36;9.90;;;8.90;;
2462;SDS011;1243;54.298;10.172;2023-08-30T04:25:03;9.10;;;8.20;;
2462;SDS011;1243;54.298;10.172;2023-08-30T04:27:29;9.37;;;8.40;;
2462;SDS011;1243;54.298;10.172;2023-08-30T04:29:54;12.13;;;10.30;;
2462;SDS011;1243;54.298;10.172;2023-08-30T04:32:20;11.67;;;9.50;;
2462;SDS011;1243;54.298;10.172;2023-08-30T04:34:46;8.87;;;7.97;;
2462;SDS011;1243;54.298;10.172;2023-08-30T04:37:11;10.53;;;8.70;;
2462;SDS011;1243;54.298;10.172;2023-08-30T04:39:38;9.57;;;8.10;;
2462;SDS011;1243;54.298;10.172;2023-08-30T04:42:05;14.73;;;10.00;;
2462;SDS011;1243;54.298;10.172;2023-08-30T04:44:30;10.23;;;9.17;;
2462;SDS011;1243;54.298;10.172;2023-08-30T04:46:57;10.60;;;9.47;;
2462;SDS011;1243;54.298;10.172;2023-08-30T04:49:23;10.33;;;9.20;;
2462;SDS011;1243;54.298;10.172;2023-08-30T04:51:50;15.33;;;10.03;;
2462;SDS011;1243;54.298;10.172;2023-08-30T04:54:16;14.10;;;10.67;;
2462;SDS011;1243;54.298;10.172;2023-08-30T04:56:41;18.60;;;10.60;;
2462;SDS011;1243;54.298;10.172;2023-08-30T04:59:07;12.27;;;9.80;;
2462;SDS011;1243;54.298;10.172;2023-08-30T05:01:33;18.33;;;9.40;;
2462;SDS011;1243;54.298;10.172;2023-08-30T05:03:59;13.23;;;10.10;;
2462;SDS011;1243;54.298;10.172;2023-08-30T05:06:24;12.53;;;10.30;;
2462;SDS011;1243;54.298;10.172;2023-08-30T05:08:50;10.77;;;8.53;;
2462;SDS011;1243;54.298;10.172;2023-08-30T05:11:16;13.57;;;8.87;;
2462;SDS011;1243;54.298;10.172;2023-08-30T05:13:42;11.50;;;9.40;;
2462;SDS011;1243;54.298;10.172;2023-08-30T05:16:07;11.53;;;8.67;;
2462;SDS011;1243;54.298;10.172;2023-08-30T05:18:33;11.30;;;9.20;;
2462;SDS011;1243;54.298;10.172;2023-08-30T05:20:59;9.13;;;7.73;;
2462;SDS011;1243;54.298;10.172;2023-08-30T05:23:24;9.43;;;8.43;;
2462;SDS011;1243;54.298;10.172;2023-08-30T05:25:50;10.13;;;8.23;;
2462;SDS011;1243;54.298;10.172;2023-08-30T05:28:16;10.50;;;8.97;;
2462;SDS011;1243;54.298;10.172;2023-08-30T05:30:42;11.23;;;8.90;;
2462;SDS011;1243;54.298;10.172;2023-08-30T05:33:08;8.77;;;7.60;;
2462;SDS011;1243;54.298;10.172;2023-08-30T05:35:34;12.80;;;7.13;;
2462;SDS011;1243;54.298;10.172;2023-08-30T05:38:00;10.50;;;8.70;;
2462;SDS011;1243;54.298;10.172;2023-08-30T05:40:26;10.53;;;8.57;;
2462;SDS011;1243;54.298;10.172;2023-08-30T05:42:51;8.80;;;7.90;;
2462;SDS011;1243;54.298;10.172;2023-08-30T05:45:17;12.50;;;8.80;;
2462;SDS011;1243;54.298;10.172;2023-08-30T05:47:43;9.77;;;8.57;;
2462;SDS011;1243;54.298;10.172;2023-08-30T05:50:08;11.40;;;9.00;;
2462;SDS011;1243;54.298;10.172;2023-08-30T05:52:34;10.00;;;8.87;;
2462;SDS011;1243;54.298;10.172;2023-08-30T05:55:00;12.40;;;8.60;;
2462;SDS011;1243;54.298;10.172;2023-08-30T05:57:26;12.43;;;8.73;;
2462;SDS011;1243;54.298;10.172;2023-08-30T05:59:53;10.23;;;8.30;;
2462;SDS011;1243;54.298;10.172;2023-08-30T06:02:19;11.67;;;9.90;;
2462;SDS011;1243;54.298;10.172;2023-08-30T06:04:45;9.77;;;8.13;;
2462;SDS011;1243;54.298;10.172;2023-08-30T06:07:10;13.17;;;8.27;;
2462;SDS011;1243;54.298;10.172;2023-08-30T06:09:36;10.13;;;8.20;;
2462;SDS011;1243;54.298;10.172;2023-08-30T06:12:02;9.40;;;8.23;;
2462;SDS011;1243;54.298;10.172;2023-08-30T06:14:28;9.03;;;8.23;;
2462;SDS011;1243;54.298;10.172;2023-08-30T06:16:54;10.33;;;8.30;;
2462;SDS011;1243;54.298;10.172;2023-08-30T06:19:20;11.07;;;7.80;;
2462;SDS011;1243;54.298;10.172;2023-08-30T06:21:45;11.43;;;9.33;;
2462;SDS011;1243;54.298;10.172;2023-08-30T06:24:11;12.60;;;8.83;;
2462;SDS011;1243;54.298;10.172;2023-08-30T06:26:37;11.03;;;9.13;;
2462;SDS011;1243;54.298;10.172;2023-08-30T06:29:02;10.63;;;7.80;;
2462;SDS011;1243;54.298;10.172;2023-08-30T06:31:28;10.53;;;7.60;;
2462;SDS011;1243;54.298;10.172;2023-08-30T06:33:54;9.67;;;8.00;;
2462;SDS011;1243;54.298;10.172;2023-08-30T06:36:20;10.50;;;8.03;;
2462;SDS011;1243;54.298;10.172;2023-08-30T06:38:47;9.50;;;8.50;;
2462;SDS011;1243;54.298;10.172;2023-08-30T06:41:13;13.37;;;8.70;;
2462;SDS011;1243;54.298;10.172;2023-08-30T06:43:39;9.60;;;8.10;;
2462;SDS011;1243;54.298;10.172;2023-08-30T06:46:05;12.70;;;9.97;;
2462;SDS011;1243;54.298;10.172;2023-08-30T06:48:30;16.37;;;9.50;;
2462;SDS011;1243;54.298;10.172;2023-08-30T06:50:57;12.03;;;9.00;;
2462;SDS011;1243;54.298;10.172;2023-08-30T06:53:24;14.43;;;9.47;;
2462;SDS011;1243;54.298;10.172;2023-08-30T06:56:02;12.50;;;9.43;;
2462;SDS011;1243;54.298;10.172;2023-08-30T06:58:27;14.97;;;11.37;;
2462;SDS011;1243;54.298;10.172;2023-08-30T07:00:53;15.07;;;10.63;;
2462;SDS011;1243;54.298;10.172;2023-08-30T07:03:21;14.27;;;10.13;;
2462;SDS011;1243;54.298;10.172;2023-08-30T07:05:47;14.10;;;8.80;;
2462;SDS011;1243;54.298;10.172;2023-08-30T07:08:15;18.60;;;9.03;;
2462;SDS011;1243;54.298;10.172;2023-08-30T07:10:41;13.33;;;9.53;;
2462;SDS011;1243;54.298;10.172;2023-08-30T07:13:07;14.03;;;10.17;;
2462;SDS011;1243;54.298;10.172;2023-08-30T07:15:36;14.83;;;10.20;;
2462;SDS011;1243;54.298;10.172;2023-08-30T07:18:06;16.70;;;10.87;;
2462;SDS011;1243;54.298;10.172;2023-08-30T07:20:33;11.43;;;10.07;;
2462;SDS011;1243;54.298;10.172;2023-08-30T07:23:00;14.40;;;10.40;;
2462;SDS011;1243;54.298;10.172;2023-08-30T07:25:26;12.63;;;10.13;;
2462;SDS011;1243;54.298;10.172;2023-08-30T07:27:51;12.30;;;10.10;;
2462;SDS011;1243;54.298;10.172;2023-08-30T07:30:17;12.63;;;9.97;;
2462;SDS011;1243;54.298;10.172;2023-08-30T07:32:43;11.53;;;9.00;;
2462;SDS011;1243;54.298;10.172;2023-08-30T07:35:09;12.30;;;9.90;;
2462;SDS011;1243;54.298;10.172;2023-08-30T07:37:35;11.77;;;9.30;;
2462;SDS011;1243;54.298;10.172;2023-08-30T07:40:01;14.43;;;9.67;;
2462;SDS011;1243;54.298;10.172;2023-08-30T07:42:29;12.00;;;9.70;;
2462;SDS011;1243;54.298;10.172;2023-08-30T07:44:55;9.73;;;8.73;;
2462;SDS011;1243;54.298;10.172;2023-08-30T07:47:21;10.30;;;8.73;;
2462;SDS011;1243;54.298;10.172;2023-08-30T07:49:46;11.27;;;9.97;;
2462;SDS011;1243;54.298;10.172;2023-08-30T07:52:12;8.37;;;7.40;;
2462;SDS011;1243;54.298;10.172;2023-08-30T07:54:39;12.73;;;7.80;;
2462;SDS011;1243;54.298;10.172;2023-08-30T07:57:05;7.97;;;7.17;;
2462;SDS011;1243;54.298;10.172;2023-08-30T07:59:37;7.40;;;6.70;;
2462;SDS011;1243;54.298;10.172;2023-08-30T08:02:06;7.57;;;6.87;;
2462;SDS011;1243;54.298;10.172;2023-08-30T08:04:35;9.77;;;6.77;;
2462;SDS011;1243;54.298;10.172;2023-08-30T08:07:01;7.97;;;4.90;;
2462;SDS011;1243;54.298;10.172;2023-08-30T08:09:28;8.10;;;5.90;;
2462;SDS011;1243;54.298;10.172;2023-08-30T08:11:54;6.40;;;5.80;;
2462;SDS011;1243;54.298;10.172;2023-08-30T08:14:21;6.10;;;5.47;;
2462;SDS011;1243;54.298;10.172;2023-08-30T08:16:50;7.63;;;6.93;;
2462;SDS011;1243;54.298;10.172;2023-08-30T08:19:16;6.17;;;5.57;;
2462;SDS011;1243;54.298;10.172;2023-08-30T08:21:41;7.73;;;6.50;;
2462;SDS011;1243;54.298;10.172;2023-08-30T08:24:07;8.53;;;7.17;;
2462;SDS011;1243;54.298;10.172;2023-08-30T08:26:33;6.93;;;6.33;;
2462;SDS011;1243;54.298;10.172;2023-08-30T08:28:58;8.57;;;7.47;;
2462;SDS011;1243;54.298;10.172;2023-08-30T08:31:25;8.70;;;7.00;;
2462;SDS011;1243;54.298;10.172;2023-08-30T08:33:50;7.73;;;6.93;;
2462;SDS011;1243;54.298;10.172;2023-08-30T08:36:29;10.27;;;6.63;;
2462;SDS011;1243;54.298;10.172;2023-08-30T08:38:56;8.70;;;6.70;;
2462;SDS011;1243;54.298;10.172;2023-08-30T08:41:21;10.03;;;7.90;;
2462;SDS011;1243;54.298;10.172;2023-08-30T08:43:56;12.87;;;7.20;;
2462;SDS011;1243;54.298;10.172;2023-08-30T08:46:22;8.40;;;7.27;;
2462;SDS011;1243;54.298;10.172;2023-08-30T08:48:49;9.13;;;7.93;;
2462;SDS011;1243;54.298;10.172;2023-08-30T08:51:16;7.60;;;6.83;;
2462;SDS011;1243;54.298;10.172;2023-08-30T08:53:42;12.80;;;8.23;;
2462;SDS011;1243;54.298;10.172;2023-08-30T08:56:08;9.23;;;7.57;;
2462;SDS011;1243;54.298;10.172;2023-08-30T08:58:35;10.87;;;6.97;;
2462;SDS011;1243;54.298;10.172;2023-08-30T09:01:03;6.20;;;5.60;;
2462;SDS011;1243;54.298;10.172;2023-08-30T09:03:30;11.63;;;7.03;;
2462;SDS011;1243;54.298;10.172;2023-08-30T09:05:59;8.50;;;6.70;;
2462;SDS011;1243;54.298;10.172;2023-08-30T09:08:27;7.47;;;6.70;;
2462;SDS011;1243;54.298;10.172;2023-08-30T09:10:53;7.60;;;6.90;;
2462;SDS011;1243;54.298;10.172;2023-08-30T09:13:19;8.03;;;7.07;;
2462;SDS011;1243;54.298;10.172;2023-08-30T09:15:47;10.30;;;6.30;;
2462;SDS011;1243;54.298;10.172;2023-08-30T09:18:14;7.00;;;6.30;;
2462;SDS011;1243;54.298;10.172;2023-08-30T09:20:41;7.30;;;6.60;;
2462;SDS011;1243;54.298;10.172;2023-08-30T09:23:16;8.10;;;7.03;;
2462;SDS011;1243;54.298;10.172;2023-08-30T09:25:43;8.07;;;6.47;;
2462;SDS011;1243;54.298;10.172;2023-08-30T09:28:10;5.93;;;5.43;;
2462;SDS011;1243;54.298;10.172;2023-08-30T09:30:35;6.43;;;5.33;;
2462;SDS011;1243;54.298;10.172;2023-08-30T09:33:01;7.90;;;5.57;;
2462;SDS011;1243;54.298;10.172;2023-08-30T09:35:28;5.77;;;5.27;;
2462;SDS011;1243;54.298;10.172;2023-08-30T09:37:53;11.47;;;6.03;;
2462;SDS011;1243;54.298;10.172;2023-08-30T09:40:19;7.30;;;5.57;;
2462;SDS011;1243;54.298;10.172;2023-08-30T09:42:45;7.23;;;5.10;;
2462;SDS011;1243;54.298;10.172;2023-08-30T09:45:24;5.07;;;4.67;;
2462;SDS011;1243;54.298;10.172;2023-08-30T09:47:50;6.00;;;4.90;;
2462;SDS011;1243;54.298;10.172;2023-08-30T09:50:20;5.83;;;5.23;;
2462;SDS011;1243;54.298;10.172;2023-08-30T09:52:47;8.30;;;5.33;;
2462;SDS011;1243;54.298;10.172;2023-08-30T09:55:15;5.43;;;4.93;;
2462;SDS011;1243;54.298;10.172;2023-08-30T09:57:43;8.00;;;7.20;;
2462;SDS011;1243;54.298;10.172;2023-08-30T10:00:09;8.07;;;6.80;;
2462;SDS011;1243;54.298;10.172;2023-08-30T10:02:37;6.90;;;6.20;;
2462;SDS011;1243;54.298;10.172;2023-08-30T10:05:07;9.03;;;5.97;;
2462;SDS011;1243;54.298;10.172;2023-08-30T10:07:34;7.50;;;6.40;;
2462;SDS011;1243;54.298;10.172;2023-08-30T10:10:02;9.03;;;8.20;;
2462;SDS011;1243;54.298;10.172;2023-08-30T10:12:29;10.60;;;8.53;;
2462;SDS011;1243;54.298;10.172;2023-08-30T10:14:57;9.20;;;8.30;;
2462;SDS011;1243;54.298;10.172;2023-08-30T10:17:23;10.00;;;9.20;;
2462;SDS011;1243;54.298;10.172;2023-08-30T10:19:53;9.60;;;8.70;;
2462;SDS011;1243;54.298;10.172;2023-08-30T10:22:20;10.57;;;9.50;;
2462;SDS011;1243;54.298;10.172;2023-08-30T10:27:19;10.00;;;9.10;;
2462;SDS011;1243;54.298;10.172;2023-08-30T10:29:47;10.30;;;9.30;;
2462;SDS011;1243;54.298;10.172;2023-08-30T10:32:18;10.23;;;9.13;;
2462;SDS011;1243;54.298;10.172;2023-08-30T10:34:47;9.60;;;8.70;;
2462;SDS011;1243;54.298;10.172;2023-08-30T10:37:21;9.57;;;8.67;;
2462;SDS011;1243;54.298;10.172;2023-08-30T10:39:49;9.23;;;8.33;;
2462;SDS011;1243;54.298;10.172;2023-08-30T10:42:15;10.73;;;9.43;;
2462;SDS011;1243;54.298;10.172;2023-08-30T10:44:48;10.27;;;9.30;;
2462;SDS011;1243;54.298;10.172;2023-08-30T10:47:28;11.10;;;9.57;;
2462;SDS011;1243;54.298;10.172;2023-08-30T10:49:56;8.80;;;8.00;;
2462;SDS011;1243;54.298;10.172;2023-08-30T10:52:23;11.77;;;8.73;;
2462;SDS011;1243;54.298;10.172;2023-08-30T10:54:49;9.90;;;8.00;;
2462;SDS011;1243;54.298;10.172;2023-08-30T10:57:35;8.20;;;7.40;;
2462;SDS011;1243;54.298;10.172;2023-08-30T11:00:04;11.37;;;8.37;;
2462;SDS011;1243;54.298;10.172;2023-08-30T11:02:32;9.23;;;8.23;;
2462;SDS011;1243;54.298;10.172;2023-08-30T11:05:01;7.87;;;7.17;;
2462;SDS011;1243;54.298;10.172;2023-08-30T11:07:28;8.30;;;7.33;;
2462;SDS011;1243;54.298;10.172;2023-08-30T11:09:54;9.93;;;8.10;;
2462;SDS011;1243;54.298;10.172;2023-08-30T11:12:20;9.77;;;8.67;;
2462;SDS011;1243;54.298;10.172;2023-08-30T11:14:54;9.17;;;8.07;;
2462;SDS011;1243;54.298;10.172;2023-08-30T11:17:21;8.00;;;6.73;;
2462;SDS011;1243;54.298;10.172;2023-08-30T11:19:50;7.43;;;6.30;;
2462;SDS011;1243;54.298;10.172;2023-08-30T11:22:22;6.00;;;5.40;;
2462;SDS011;1243;54.298;10.172;2023-08-30T11:24:48;7.13;;;6.50;;
2462;SDS011;1243;54.298;10.172;2023-08-30T11:27:16;5.83;;;5.33;;
2462;SDS011;1243;54.298;10.172;2023-08-30T11:29:42;8.00;;;6.00;;
2462;SDS011;1243;54.298;10.172;2023-08-30T11:32:08;6.10;;;5.40;;
2462;SDS011;1243;54.298;10.172;2023-08-30T11:34:34;9.30;;;6.53;;
2462;SDS011;1243;54.298;10.172;2023-08-30T11:36:59;7.20;;;5.83;;
2462;SDS011;1243;54.298;10.172;2023-08-30T11:39:27;6.53;;;5.83;;
2462;SDS011;1243;54.298;10.172;2023-08-30T11:41:54;5.13;;;4.83;;
2462;SDS011;1243;54.298;10.172;2023-08-30T11:44:22;8.37;;;6.87;;
2462;SDS011;1243;54.298;10.172;2023-08-30T11:46:56;6.13;;;5.40;;
2462;SDS011;1243;54.298;10.172;2023-08-30T11:49:28;7.43;;;5.33;;
2462;SDS011;1243;54.298;10.172;2023-08-30T11:51:55;6.53;;;5.93;;
2462;SDS011;1243;54.298;10.172;2023-08-30T11:54:25;6.30;;;5.33;;
2462;SDS011;1243;54.298;10.172;2023-08-30T11:56:52;6.90;;;6.30;;
2462;SDS011;1243;54.298;10.172;2023-08-30T11:59:18;6.80;;;6.10;;
2462;SDS011;1243;54.298;10.172;2023-08-30T12:01:48;7.80;;;5.93;;
2462;SDS011;1243;54.298;10.172;2023-08-30T12:04:14;7.77;;;5.97;;
2462;SDS011;1243;54.298;10.172;2023-08-30T12:06:40;6.93;;;6.20;;
2462;SDS011;1243;54.298;10.172;2023-08-30T12:09:11;6.00;;;5.50;;
2462;SDS011;1243;54.298;10.172;2023-08-30T12:11:37;6.70;;;6.10;;
2462;SDS011;1243;54.298;10.172;2023-08-30T12:14:03;6.63;;;6.13;;
2462;SDS011;1243;54.298;10.172;2023-08-30T12:16:28;7.40;;;6.40;;
2462;SDS011;1243;54.298;10.172;2023-08-30T12:18:54;5.93;;;5.43;;
2462;SDS011;1243;54.298;10.172;2023-08-30T12:21:20;5.73;;;5.23;;
2462;SDS011;1243;54.298;10.172;2023-08-30T12:23:46;6.70;;;5.83;;
2462;SDS011;1243;54.298;10.172;2023-08-30T12:26:11;7.67;;;5.50;;
2462;SDS011;1243;54.298;10.172;2023-08-30T12:28:38;8.83;;;6.47;;
2462;SDS011;1243;54.298;10.172;2023-08-30T12:31:05;7.40;;;5.60;;
2462;SDS011;1243;54.298;10.172;2023-08-30T12:33:32;7.57;;;5.30;;
2462;SDS011;1243;54.298;10.172;2023-08-30T12:35:59;8.30;;;6.07;;
2462;SDS011;1243;54.298;10.172;2023-08-30T12:38:25;7.00;;;6.30;;
2462;SDS011;1243;54.298;10.172;2023-08-30T12:40:52;7.47;;;6.23;;
2462;SDS011;1243;54.298;10.172;2023-08-30T12:43:19;6.13;;;5.60;;
2462;SDS011;1243;54.298;10.172;2023-08-30T12:45:46;6.00;;;5.40;;
2462;SDS011;1243;54.298;10.172;2023-08-30T12:48:13;6.40;;;5.80;;
2462;SDS011;1243;54.298;10.172;2023-08-30T12:50:43;5.67;;;5.17;;
2462;SDS011;1243;54.298;10.172;2023-08-30T12:53:10;6.93;;;6.33;;
2462;SDS011;1243;54.298;10.172;2023-08-30T12:55:36;6.67;;;6.03;;
2462;SDS011;1243;54.298;10.172;2023-08-30T12:58:06;8.93;;;6.63;;
2462;SDS011;1243;54.298;10.172;2023-08-30T13:00:32;7.00;;;6.33;;
2462;SDS011;1243;54.298;10.172;2023-08-30T13:02:58;9.00;;;6.60;;
2462;SDS011;1243;54.298;10.172;2023-08-30T13:05:25;6.10;;;5.63;;
2462;SDS011;1243;54.298;10.172;2023-08-30T13:07:50;6.40;;;5.80;;
2462;SDS011;1243;54.298;10.172;2023-08-30T13:10:16;13.07;;;5.87;;
2462;SDS011;1243;54.298;10.172;2023-08-30T13:12:42;7.43;;;6.80;;
2462;SDS011;1243;54.298;10.172;2023-08-30T13:15:08;6.30;;;5.70;;
2462;SDS011;1243;54.298;10.172;2023-08-30T13:17:34;6.57;;;6.07;;
2462;SDS011;1243;54.298;10.172;2023-08-30T13:20:00;7.23;;;6.53;;
2462;SDS011;1243;54.298;10.172;2023-08-30T13:22:26;7.70;;;6.93;;
2462;SDS011;1243;54.298;10.172;2023-08-30T13:24:53;5.73;;;5.33;;
2462;SDS011;1243;54.298;10.172;2023-08-30T13:27:19;7.10;;;6.50;;
2462;SDS011;1243;54.298;10.172;2023-08-30T13:29:45;8.30;;;6.20;;
2462;SDS011;1243;54.298;10.172;2023-08-30T13:32:11;6.40;;;5.73;;
2462;SDS011;1243;54.298;10.172;2023-08-30T13:34:37;9.70;;;7.77;;
2462;SDS011;1243;54.298;10.172;2023-08-30T13:37:03;6.97;;;5.83;;
2462;SDS011;1243;54.298;10.172;2023-08-30T13:39:29;6.80;;;6.07;;
2462;SDS011;1243;54.298;10.172;2023-08-30T13:41:55;5.47;;;4.97;;
2462;SDS011;1243;54.298;10.172;2023-08-30T13:44:21;7.07;;;5.73;;
2462;SDS011;1243;54.298;10.172;2023-08-30T13:46:47;7.10;;;6.17;;
2462;SDS011;1243;54.298;10.172;2023-08-30T13:49:13;6.57;;;4.70;;
2462;SDS011;1243;54.298;10.172;2023-08-30T13:51:40;6.43;;;5.83;;
2462;SDS011;1243;54.298;10.172;2023-08-30T13:54:06;5.67;;;5.17;;
2462;SDS011;1243;54.298;10.172;2023-08-30T13:56:32;6.87;;;5.57;;
2462;SDS011;1243;54.298;10.172;2023-08-30T13:58:57;7.50;;;5.70;;
2462;SDS011;1243;54.298;10.172;2023-08-30T14:01:24;6.57;;;5.93;;
2462;SDS011;1243;54.298;10.172;2023-08-30T14:03:49;8.03;;;5.90;;
2462;SDS011;1243;54.298;10.172;2023-08-30T14:06:15;7.13;;;6.53;;
2462;SDS011;1243;54.298;10.172;2023-08-30T14:08:41;7.80;;;5.90;;
2462;SDS011;1243;54.298;10.172;2023-08-30T14:11:07;7.00;;;6.30;;
2462;SDS011;1243;54.298;10.172;2023-08-30T14:13:33;7.10;;;5.17;;
2462;SDS011;1243;54.298;10.172;2023-08-30T14:15:59;6.93;;;6.07;;
2462;SDS011;1243;54.298;10.172;2023-08-30T14:18:26;7.70;;;6.17;;
2462;SDS011;1243;54.298;10.172;2023-08-30T14:20:54;7.10;;;6.00;;
2462;SDS011;1243;54.298;10.172;2023-08-30T14:23:24;5.10;;;4.60;;
2462;SDS011;1243;54.298;10.172;2023-08-30T14:26:00;13.57;;;7.17;;
2462;SDS011;1243;54.298;10.172;2023-08-30T14:28:37;6.47;;;5.87;;
2462;SDS011;1243;54.298;10.172;2023-08-30T14:31:07;6.60;;;5.40;;
2462;SDS011;1243;54.298;10.172;2023-08-30T14:33:34;5.03;;;4.63;;
2462;SDS011;1243;54.298;10.172;2023-08-30T14:36:00;5.97;;;5.47;;
2462;SDS011;1243;54.298;10.172;2023-08-30T14:38:29;7.10;;;6.40;;
2462;SDS011;1243;54.298;10.172;2023-08-30T14:40:57;5.83;;;5.23;;
2462;SDS011;1243;54.298;10.172;2023-08-30T14:43:24;5.17;;;4.67;;
2462;SDS011;1243;54.298;10.172;2023-08-30T14:45:50;5.33;;;4.83;;
2462;SDS011;1243;54.298;10.172;2023-08-30T14:48:16;6.50;;;5.87;;
2462;SDS011;1243;54.298;10.172;2023-08-30T14:50:42;7.73;;;6.10;;
2462;SDS011;1243;54.298;10.172;2023-08-30T14:53:08;6.57;;;5.87;;
2462;SDS011;1243;54.298;10.172;2023-08-30T14:55:34;5.53;;;5.03;;
2462;SDS011;1243;54.298;10.172;2023-08-30T14:57:59;6.57;;;5.67;;
2462;SDS011;1243;54.298;10.172;2023-08-30T15:00:25;6.10;;;5.50;;
2462;SDS011;1243;54.298;10.172;2023-08-30T15:02:51;6.97;;;5.53;;